sensor_id;sensor_type;location;lat;lon;timestamp;P1;durP1;ratioP1;P2;durP2;ratioP2
20865;SDS011;10593;48.398;10.698;2023-08-17T00:22:35;2.70;;;2.50;;
20865;SDS011;10593;48.398;10.698;2023-08-17T00:25:02;2.83;;;2.63;;
20865;SDS011;10593;48.398;10.698;2023-08-17T00:27:29;2.70;;;2.50;;
20865;SDS011;10593;48.398;10.698;2023-08-17T00:29:57;3.13;;;2.93;;
20865;SDS011;10593;48.398;10.698;2023-08-17T00:32:23;2.90;;;2.60;;
20865;SDS011;10593;48.398;10.698;2023-08-17T00:34:48;2.93;;;2.63;;
20865;SDS011;10593;48.398;10.698;2023-08-17T00:37:14;2.90;;;2.70;;
20865;SDS011;10593;48.398;10.698;2023-08-17T00:39:40;3.37;;;3.07;;
20865;SDS011;10593;48.398;10.698;2023-08-17T00:42:05;3.00;;;2.80;;
20865;SDS011;10593;48.398;10.698;2023-08-17T00:44:33;2.57;;;2.47;;
20865;SDS011;10593;48.398;10.698;2023-08-17T00:47:00;2.70;;;2.50;;
20865;SDS011;10593;48.398;10.698;2023-08-17T00:49:26;3.10;;;2.90;;
20865;SDS011;10593;48.398;10.698;2023-08-17T00:51:52;2.90;;;2.70;;
20865;SDS011;10593;48.398;10.698;2023-08-17T00:54:19;3.13;;;2.90;;
20865;SDS011;10593;48.398;10.698;2023-08-17T00:56:50;3.03;;;2.77;;
20865;SDS011;10593;48.398;10.698;2023-08-17T00:59:17;4.20;;;3.20;;
20865;SDS011;10593;48.398;10.698;2023-08-17T01:01:43;3.00;;;2.80;;
20865;SDS011;10593;48.398;10.698;2023-08-17T01:04:10;3.10;;;2.80;;
20865;SDS011;10593;48.398;10.698;2023-08-17T01:06:36;2.53;;;2.33;;
20865;SDS011;10593;48.398;10.698;2023-08-17T01:09:02;2.70;;;2.50;;
20865;SDS011;10593;48.398;10.698;2023-08-17T01:11:32;2.60;;;2.40;;
20865;SDS011;10593;48.398;10.698;2023-08-17T01:14:16;2.80;;;2.60;;
20865;SDS011;10593;48.398;10.698;2023-08-17T01:16:58;3.77;;;2.93;;
20865;SDS011;10593;48.398;10.698;2023-08-17T01:19:31;2.57;;;2.43;;
20865;SDS011;10593;48.398;10.698;2023-08-17T01:22:03;2.57;;;2.43;;
20865;SDS011;10593;48.398;10.698;2023-08-17T01:24:30;3.43;;;3.13;;
20865;SDS011;10593;48.398;10.698;2023-08-17T01:26:56;2.90;;;2.70;;
20865;SDS011;10593;48.398;10.698;2023-08-17T01:29:21;3.00;;;2.80;;
20865;SDS011;10593;48.398;10.698;2023-08-17T01:42:11;3.20;;;3.00;;
20865;SDS011;10593;48.398;10.698;2023-08-17T01:44:38;3.13;;;2.93;;
20865;SDS011;10593;48.398;10.698;2023-08-17T01:47:05;2.93;;;2.73;;
20865;SDS011;10593;48.398;10.698;2023-08-17T01:49:31;3.17;;;2.97;;
20865;SDS011;10593;48.398;10.698;2023-08-17T01:51:57;3.40;;;3.10;;
20865;SDS011;10593;48.398;10.698;2023-08-17T01:54:22;3.10;;;2.80;;
20865;SDS011;10593;48.398;10.698;2023-08-17T01:56:49;3.00;;;2.80;;
20865;SDS011;10593;48.398;10.698;2023-08-17T01:59:15;2.93;;;2.73;;
20865;SDS011;10593;48.398;10.698;2023-08-17T02:01:41;3.27;;;2.53;;
20865;SDS011;10593;48.398;10.698;2023-08-17T02:04:07;3.63;;;3.20;;
20865;SDS011;10593;48.398;10.698;2023-08-17T02:06:32;3.00;;;2.80;;
20865;SDS011;10593;48.398;10.698;2023-08-17T02:08:58;3.13;;;2.93;;
20865;SDS011;10593;48.398;10.698;2023-08-17T02:11:24;3.50;;;3.03;;
20865;SDS011;10593;48.398;10.698;2023-08-17T02:13:50;2.70;;;2.50;;
20865;SDS011;10593;48.398;10.698;2023-08-17T02:16:16;3.40;;;2.30;;
20865;SDS011;10593;48.398;10.698;2023-08-17T02:18:41;2.87;;;2.53;;
20865;SDS011;10593;48.398;10.698;2023-08-17T02:21:08;3.20;;;2.90;;
20865;SDS011;10593;48.398;10.698;2023-08-17T02:23:34;2.67;;;2.47;;
20865;SDS011;10593;48.398;10.698;2023-08-17T02:26:00;4.53;;;2.90;;
20865;SDS011;10593;48.398;10.698;2023-08-17T02:28:26;4.30;;;2.83;;
20865;SDS011;10593;48.398;10.698;2023-08-17T02:30:54;2.90;;;2.70;;
20865;SDS011;10593;48.398;10.698;2023-08-17T02:33:22;2.57;;;2.47;;
20865;SDS011;10593;48.398;10.698;2023-08-17T02:35:49;3.90;;;2.60;;
20865;SDS011;10593;48.398;10.698;2023-08-17T02:38:15;3.40;;;3.10;;
20865;SDS011;10593;48.398;10.698;2023-08-17T02:40:41;2.60;;;2.40;;
20865;SDS011;10593;48.398;10.698;2023-08-17T02:43:07;2.60;;;2.50;;
20865;SDS011;10593;48.398;10.698;2023-08-17T02:45:33;2.67;;;2.47;;
20865;SDS011;10593;48.398;10.698;2023-08-17T02:47:59;2.50;;;2.40;;
20865;SDS011;10593;48.398;10.698;2023-08-17T02:50:25;2.87;;;2.50;;
20865;SDS011;10593;48.398;10.698;2023-08-17T02:52:51;4.43;;;2.83;;
20865;SDS011;10593;48.398;10.698;2023-08-17T02:55:16;2.83;;;2.63;;
20865;SDS011;10593;48.398;10.698;2023-08-17T02:57:42;2.60;;;2.40;;
20865;SDS011;10593;48.398;10.698;2023-08-17T03:00:08;2.83;;;2.63;;
20865;SDS011;10593;48.398;10.698;2023-08-17T03:02:34;2.57;;;2.40;;
20865;SDS011;10593;48.398;10.698;2023-08-17T03:05:00;3.83;;;2.97;;
20865;SDS011;10593;48.398;10.698;2023-08-17T03:07:28;2.50;;;2.33;;
20865;SDS011;10593;48.398;10.698;2023-08-17T03:09:54;2.50;;;2.40;;
20865;SDS011;10593;48.398;10.698;2023-08-17T03:12:19;2.70;;;2.50;;
20865;SDS011;10593;48.398;10.698;2023-08-17T03:14:45;2.90;;;2.70;;
20865;SDS011;10593;48.398;10.698;2023-08-17T03:17:11;2.57;;;2.37;;
20865;SDS011;10593;48.398;10.698;2023-08-17T03:19:36;2.50;;;2.30;;
20865;SDS011;10593;48.398;10.698;2023-08-17T03:22:04;3.30;;;2.70;;
20865;SDS011;10593;48.398;10.698;2023-08-17T03:24:29;3.10;;;2.80;;
20865;SDS011;10593;48.398;10.698;2023-08-17T03:26:55;3.33;;;3.10;;
20865;SDS011;10593;48.398;10.698;2023-08-17T03:29:22;2.73;;;2.53;;
20865;SDS011;10593;48.398;10.698;2023-08-17T03:31:48;2.90;;;2.70;;
20865;SDS011;10593;48.398;10.698;2023-08-17T03:34:14;3.43;;;2.90;;
20865;SDS011;10593;48.398;10.698;2023-08-17T03:36:41;3.27;;;2.67;;
20865;SDS011;10593;48.398;10.698;2023-08-17T03:39:06;4.27;;;3.10;;
20865;SDS011;10593;48.398;10.698;2023-08-17T03:41:32;3.00;;;2.83;;
20865;SDS011;10593;48.398;10.698;2023-08-17T03:43:58;3.20;;;2.90;;
20865;SDS011;10593;48.398;10.698;2023-08-17T03:46:24;3.20;;;2.90;;
20865;SDS011;10593;48.398;10.698;2023-08-17T03:48:49;3.13;;;2.93;;
20865;SDS011;10593;48.398;10.698;2023-08-17T03:51:15;3.40;;;3.20;;
20865;SDS011;10593;48.398;10.698;2023-08-17T03:53:41;3.13;;;2.80;;
20865;SDS011;10593;48.398;10.698;2023-08-17T03:56:07;4.93;;;3.27;;
20865;SDS011;10593;48.398;10.698;2023-08-17T03:58:33;3.53;;;3.23;;
20865;SDS011;10593;48.398;10.698;2023-08-17T04:00:59;4.33;;;2.90;;
20865;SDS011;10593;48.398;10.698;2023-08-17T04:03:26;3.77;;;3.47;;
20865;SDS011;10593;48.398;10.698;2023-08-17T04:05:51;3.20;;;2.97;;
20865;SDS011;10593;48.398;10.698;2023-08-17T04:08:17;3.03;;;2.80;;
20865;SDS011;10593;48.398;10.698;2023-08-17T04:10:42;3.93;;;3.00;;
20865;SDS011;10593;48.398;10.698;2023-08-17T04:13:08;3.37;;;2.90;;
20865;SDS011;10593;48.398;10.698;2023-08-17T04:15:34;2.97;;;2.77;;
20865;SDS011;10593;48.398;10.698;2023-08-17T04:18:00;3.53;;;3.33;;
20865;SDS011;10593;48.398;10.698;2023-08-17T04:20:25;3.37;;;3.17;;
20865;SDS011;10593;48.398;10.698;2023-08-17T04:22:51;3.00;;;2.80;;
20865;SDS011;10593;48.398;10.698;2023-08-17T04:25:17;3.30;;;3.00;;
20865;SDS011;10593;48.398;10.698;2023-08-17T04:27:43;2.77;;;2.57;;
20865;SDS011;10593;48.398;10.698;2023-08-17T04:30:09;3.63;;;3.33;;
20865;SDS011;10593;48.398;10.698;2023-08-17T06:54:11;5.20;;;4.53;;
20865;SDS011;10593;48.398;10.698;2023-08-17T06:56:37;5.67;;;5.17;;
20865;SDS011;10593;48.398;10.698;2023-08-17T06:59:04;6.17;;;5.57;;
20865;SDS011;10593;48.398;10.698;2023-08-17T07:01:30;6.70;;;5.67;;
20865;SDS011;10593;48.398;10.698;2023-08-17T07:03:56;5.03;;;4.57;;
20865;SDS011;10593;48.398;10.698;2023-08-17T07:06:22;5.27;;;4.80;;
20865;SDS011;10593;48.398;10.698;2023-08-17T07:08:49;4.90;;;4.40;;
20865;SDS011;10593;48.398;10.698;2023-08-17T07:11:15;4.93;;;4.53;;
20865;SDS011;10593;48.398;10.698;2023-08-17T07:13:40;5.90;;;4.63;;
20865;SDS011;10593;48.398;10.698;2023-08-17T07:16:06;5.50;;;5.00;;
20865;SDS011;10593;48.398;10.698;2023-08-17T07:18:32;5.70;;;5.20;;
20865;SDS011;10593;48.398;10.698;2023-08-17T07:20:58;6.07;;;5.57;;
20865;SDS011;10593;48.398;10.698;2023-08-17T07:23:23;6.23;;;5.67;;
20865;SDS011;10593;48.398;10.698;2023-08-17T07:25:49;6.77;;;5.93;;
20865;SDS011;10593;48.398;10.698;2023-08-17T07:28:14;5.90;;;5.40;;
20865;SDS011;10593;48.398;10.698;2023-08-17T07:30:41;6.03;;;5.53;;
20865;SDS011;10593;48.398;10.698;2023-08-17T07:33:07;6.37;;;5.67;;
20865;SDS011;10593;48.398;10.698;2023-08-17T07:35:32;6.07;;;5.60;;
20865;SDS011;10593;48.398;10.698;2023-08-17T07:37:58;6.23;;;5.63;;
20865;SDS011;10593;48.398;10.698;2023-08-17T07:40:24;6.20;;;5.70;;
20865;SDS011;10593;48.398;10.698;2023-08-17T07:42:50;6.17;;;5.67;;
20865;SDS011;10593;48.398;10.698;2023-08-17T07:45:16;5.80;;;5.30;;
20865;SDS011;10593;48.398;10.698;2023-08-17T07:47:41;6.23;;;5.70;;
20865;SDS011;10593;48.398;10.698;2023-08-17T07:50:07;5.00;;;4.70;;
20865;SDS011;10593;48.398;10.698;2023-08-17T07:52:33;5.87;;;5.40;;
20865;SDS011;10593;48.398;10.698;2023-08-17T07:54:59;5.47;;;5.07;;
20865;SDS011;10593;48.398;10.698;2023-08-17T07:57:25;5.47;;;5.07;;
20865;SDS011;10593;48.398;10.698;2023-08-17T07:59:50;5.73;;;5.33;;
20865;SDS011;10593;48.398;10.698;2023-08-17T08:02:16;5.63;;;5.13;;
20865;SDS011;10593;48.398;10.698;2023-08-17T08:04:42;5.67;;;5.17;;
20865;SDS011;10593;48.398;10.698;2023-08-17T08:07:08;5.07;;;4.63;;
20865;SDS011;10593;48.398;10.698;2023-08-17T08:09:35;5.43;;;4.90;;
20865;SDS011;10593;48.398;10.698;2023-08-17T08:12:01;5.33;;;4.93;;
20865;SDS011;10593;48.398;10.698;2023-08-17T08:14:28;5.30;;;4.97;;
20865;SDS011;10593;48.398;10.698;2023-08-17T08:16:54;5.40;;;4.90;;
20865;SDS011;10593;48.398;10.698;2023-08-17T08:19:20;4.77;;;4.37;;
20865;SDS011;10593;48.398;10.698;2023-08-17T08:21:46;4.87;;;4.47;;
20865;SDS011;10593;48.398;10.698;2023-08-17T08:24:11;4.80;;;4.50;;
20865;SDS011;10593;48.398;10.698;2023-08-17T08:26:38;5.80;;;5.30;;
20865;SDS011;10593;48.398;10.698;2023-08-17T08:29:03;5.03;;;4.53;;
20865;SDS011;10593;48.398;10.698;2023-08-17T08:31:29;5.10;;;4.60;;
20865;SDS011;10593;48.398;10.698;2023-08-17T08:33:55;5.37;;;4.87;;
20865;SDS011;10593;48.398;10.698;2023-08-17T08:36:21;5.07;;;4.67;;
20865;SDS011;10593;48.398;10.698;2023-08-17T08:38:46;4.87;;;4.47;;
20865;SDS011;10593;48.398;10.698;2023-08-17T08:41:12;5.07;;;4.60;;
20865;SDS011;10593;48.398;10.698;2023-08-17T08:43:38;5.37;;;4.57;;
20865;SDS011;10593;48.398;10.698;2023-08-17T08:46:04;5.53;;;5.07;;
20865;SDS011;10593;48.398;10.698;2023-08-17T08:48:31;4.47;;;4.17;;
20865;SDS011;10593;48.398;10.698;2023-08-17T08:50:59;5.20;;;4.80;;
20865;SDS011;10593;48.398;10.698;2023-08-17T08:53:34;4.90;;;4.50;;
20865;SDS011;10593;48.398;10.698;2023-08-17T08:56:04;5.03;;;4.63;;
20865;SDS011;10593;48.398;10.698;2023-08-17T08:58:36;4.90;;;4.50;;
20865;SDS011;10593;48.398;10.698;2023-08-17T09:01:04;4.60;;;4.30;;
20865;SDS011;10593;48.398;10.698;2023-08-17T09:03:34;5.07;;;4.67;;
20865;SDS011;10593;48.398;10.698;2023-08-17T09:06:01;4.97;;;4.57;;
20865;SDS011;10593;48.398;10.698;2023-08-17T09:08:29;4.80;;;4.40;;
20865;SDS011;10593;48.398;10.698;2023-08-17T09:10:56;4.90;;;4.60;;
20865;SDS011;10593;48.398;10.698;2023-08-17T09:13:22;5.00;;;4.60;;
20865;SDS011;10593;48.398;10.698;2023-08-17T09:15:48;4.33;;;3.97;;
20865;SDS011;10593;48.398;10.698;2023-08-17T09:18:14;4.37;;;4.07;;
20865;SDS011;10593;48.398;10.698;2023-08-17T09:20:41;4.27;;;3.97;;
20865;SDS011;10593;48.398;10.698;2023-08-17T09:23:12;4.20;;;3.90;;
20865;SDS011;10593;48.398;10.698;2023-08-17T09:25:47;4.30;;;3.90;;
20865;SDS011;10593;48.398;10.698;2023-08-17T09:28:17;4.10;;;3.80;;
20865;SDS011;10593;48.398;10.698;2023-08-17T09:30:58;5.07;;;4.47;;
20865;SDS011;10593;48.398;10.698;2023-08-17T09:33:31;3.70;;;3.50;;
20865;SDS011;10593;48.398;10.698;2023-08-17T09:35:58;4.10;;;3.80;;
20865;SDS011;10593;48.398;10.698;2023-08-17T09:38:25;3.97;;;3.70;;
20865;SDS011;10593;48.398;10.698;2023-08-17T09:40:52;4.63;;;4.33;;
20865;SDS011;10593;48.398;10.698;2023-08-17T09:43:19;4.00;;;3.70;;
20865;SDS011;10593;48.398;10.698;2023-08-17T09:45:46;4.03;;;3.70;;
20865;SDS011;10593;48.398;10.698;2023-08-17T09:48:18;4.10;;;3.80;;
20865;SDS011;10593;48.398;10.698;2023-08-17T09:50:46;4.13;;;3.83;;
20865;SDS011;10593;48.398;10.698;2023-08-17T09:53:13;4.13;;;3.80;;
20865;SDS011;10593;48.398;10.698;2023-08-17T09:55:42;4.17;;;3.87;;
20865;SDS011;10593;48.398;10.698;2023-08-17T09:58:09;4.37;;;4.07;;
20865;SDS011;10593;48.398;10.698;2023-08-17T10:00:39;4.57;;;4.27;;
20865;SDS011;10593;48.398;10.698;2023-08-17T10:03:10;4.60;;;4.30;;
20865;SDS011;10593;48.398;10.698;2023-08-17T10:05:40;4.57;;;4.17;;
20865;SDS011;10593;48.398;10.698;2023-08-17T10:08:11;4.03;;;3.83;;
20865;SDS011;10593;48.398;10.698;2023-08-17T10:10:38;3.93;;;3.73;;
20865;SDS011;10593;48.398;10.698;2023-08-17T10:13:09;4.70;;;4.30;;
20865;SDS011;10593;48.398;10.698;2023-08-17T10:15:43;4.50;;;4.17;;
20865;SDS011;10593;48.398;10.698;2023-08-17T10:21:23;4.07;;;3.80;;
20865;SDS011;10593;48.398;10.698;2023-08-17T10:24:03;4.10;;;3.80;;
20865;SDS011;10593;48.398;10.698;2023-08-17T10:26:32;4.03;;;3.73;;
20865;SDS011;10593;48.398;10.698;2023-08-17T10:28:58;4.43;;;4.13;;
20865;SDS011;10593;48.398;10.698;2023-08-17T10:31:27;4.43;;;4.03;;
20865;SDS011;10593;48.398;10.698;2023-08-17T10:33:54;3.73;;;3.47;;
20865;SDS011;10593;48.398;10.698;2023-08-17T10:36:22;4.67;;;4.27;;
20865;SDS011;10593;48.398;10.698;2023-08-17T10:39:17;4.17;;;3.80;;
20865;SDS011;10593;48.398;10.698;2023-08-17T10:41:49;4.77;;;4.47;;
20865;SDS011;10593;48.398;10.698;2023-08-17T10:45:03;3.80;;;3.50;;
20865;SDS011;10593;48.398;10.698;2023-08-17T10:47:20;4.67;;;3.70;;
20865;SDS011;10593;48.398;10.698;2023-08-17T10:49:55;4.20;;;3.90;;
20865;SDS011;10593;48.398;10.698;2023-08-17T10:52:48;6.10;;;4.40;;
20865;SDS011;10593;48.398;10.698;2023-08-17T10:55:16;4.03;;;3.63;;
20865;SDS011;10593;48.398;10.698;2023-08-17T10:57:44;3.97;;;3.27;;
20865;SDS011;10593;48.398;10.698;2023-08-17T11:00:19;4.10;;;3.80;;
20865;SDS011;10593;48.398;10.698;2023-08-17T11:03:04;4.67;;;3.50;;
20865;SDS011;10593;48.398;10.698;2023-08-17T11:05:36;3.73;;;3.53;;
20865;SDS011;10593;48.398;10.698;2023-08-17T11:08:11;3.70;;;3.40;;
20865;SDS011;10593;48.398;10.698;2023-08-17T11:11:02;3.63;;;3.43;;
20865;SDS011;10593;48.398;10.698;2023-08-17T11:13:37;3.53;;;3.33;;
20865;SDS011;10593;48.398;10.698;2023-08-17T11:16:08;3.63;;;3.43;;
20865;SDS011;10593;48.398;10.698;2023-08-17T11:18:36;4.03;;;3.50;;
20865;SDS011;10593;48.398;10.698;2023-08-17T11:21:03;3.67;;;3.40;;
20865;SDS011;10593;48.398;10.698;2023-08-17T11:23:31;3.80;;;3.50;;
20865;SDS011;10593;48.398;10.698;2023-08-17T11:25:58;3.83;;;3.53;;
20865;SDS011;10593;48.398;10.698;2023-08-17T11:28:25;3.60;;;3.40;;
20865;SDS011;10593;48.398;10.698;2023-08-17T11:30:59;3.50;;;3.23;;
20865;SDS011;10593;48.398;10.698;2023-08-17T11:33:26;3.83;;;3.53;;
20865;SDS011;10593;48.398;10.698;2023-08-17T11:35:54;3.50;;;3.30;;
20865;SDS011;10593;48.398;10.698;2023-08-17T11:38:23;3.33;;;3.03;;
20865;SDS011;10593;48.398;10.698;2023-08-17T11:40:50;3.57;;;3.30;;
20865;SDS011;10593;48.398;10.698;2023-08-17T11:43:18;3.60;;;3.40;;
20865;SDS011;10593;48.398;10.698;2023-08-17T11:45:45;3.13;;;2.97;;
20865;SDS011;10593;48.398;10.698;2023-08-17T11:48:11;3.27;;;3.07;;
20865;SDS011;10593;48.398;10.698;2023-08-17T11:50:38;3.23;;;3.03;;
20865;SDS011;10593;48.398;10.698;2023-08-17T11:53:04;3.20;;;3.00;;
20865;SDS011;10593;48.398;10.698;2023-08-17T11:55:30;3.40;;;3.20;;
20865;SDS011;10593;48.398;10.698;2023-08-17T11:57:56;3.50;;;3.20;;
20865;SDS011;10593;48.398;10.698;2023-08-17T12:00:22;3.10;;;2.90;;
20865;SDS011;10593;48.398;10.698;2023-08-17T12:02:51;3.43;;;3.13;;
20865;SDS011;10593;48.398;10.698;2023-08-17T12:05:24;4.60;;;3.67;;
20865;SDS011;10593;48.398;10.698;2023-08-17T12:07:52;4.73;;;3.53;;
20865;SDS011;10593;48.398;10.698;2023-08-17T12:10:19;3.60;;;3.37;;
20865;SDS011;10593;48.398;10.698;2023-08-17T12:12:48;4.17;;;3.87;;
20865;SDS011;10593;48.398;10.698;2023-08-17T12:15:17;3.40;;;3.20;;
20865;SDS011;10593;48.398;10.698;2023-08-17T12:17:46;3.30;;;3.10;;
20865;SDS011;10593;48.398;10.698;2023-08-17T12:20:20;5.53;;;3.17;;
20865;SDS011;10593;48.398;10.698;2023-08-17T12:22:47;3.13;;;2.93;;
20865;SDS011;10593;48.398;10.698;2023-08-17T12:25:13;3.03;;;2.80;;
20865;SDS011;10593;48.398;10.698;2023-08-17T12:27:40;3.23;;;2.77;;
20865;SDS011;10593;48.398;10.698;2023-08-17T12:30:13;2.90;;;2.70;;
20865;SDS011;10593;48.398;10.698;2023-08-17T12:32:51;3.28;;;3.08;;
20865;SDS011;10593;48.398;10.698;2023-08-17T12:35:17;3.70;;;3.37;;
20865;SDS011;10593;48.398;10.698;2023-08-17T12:37:42;3.47;;;3.17;;
20865;SDS011;10593;48.398;10.698;2023-08-17T12:40:08;3.93;;;3.20;;
20865;SDS011;10593;48.398;10.698;2023-08-17T12:42:35;3.70;;;3.40;;
20865;SDS011;10593;48.398;10.698;2023-08-17T12:45:00;3.23;;;2.93;;
20865;SDS011;10593;48.398;10.698;2023-08-17T12:47:26;2.97;;;2.77;;
20865;SDS011;10593;48.398;10.698;2023-08-17T12:49:52;3.67;;;3.37;;
20865;SDS011;10593;48.398;10.698;2023-08-17T12:52:18;3.40;;;3.07;;
20865;SDS011;10593;48.398;10.698;2023-08-17T12:54:44;3.30;;;3.10;;
20865;SDS011;10593;48.398;10.698;2023-08-17T12:57:09;3.30;;;3.00;;
20865;SDS011;10593;48.398;10.698;2023-08-17T12:59:35;3.20;;;3.00;;
20865;SDS011;10593;48.398;10.698;2023-08-17T13:02:01;3.43;;;3.23;;
20865;SDS011;10593;48.398;10.698;2023-08-17T13:04:26;6.63;;;3.33;;
20865;SDS011;10593;48.398;10.698;2023-08-17T13:06:52;3.70;;;3.40;;
20865;SDS011;10593;48.398;10.698;2023-08-17T13:09:18;3.70;;;3.17;;
20865;SDS011;10593;48.398;10.698;2023-08-17T13:11:44;3.23;;;3.03;;
20865;SDS011;10593;48.398;10.698;2023-08-17T13:19:20;3.27;;;3.00;;
20865;SDS011;10593;48.398;10.698;2023-08-17T13:21:45;5.40;;;3.70;;
20865;SDS011;10593;48.398;10.698;2023-08-17T13:24:12;4.30;;;3.83;;
20865;SDS011;10593;48.398;10.698;2023-08-17T13:26:38;3.50;;;3.17;;
20865;SDS011;10593;48.398;10.698;2023-08-17T13:29:04;5.23;;;3.50;;
20865;SDS011;10593;48.398;10.698;2023-08-17T13:31:30;3.43;;;3.17;;
20865;SDS011;10593;48.398;10.698;2023-08-17T13:33:55;6.87;;;3.60;;
20865;SDS011;10593;48.398;10.698;2023-08-17T13:36:21;3.57;;;3.37;;
20865;SDS011;10593;48.398;10.698;2023-08-17T13:38:47;3.50;;;2.83;;
20865;SDS011;10593;48.398;10.698;2023-08-17T13:41:12;3.27;;;2.97;;
20865;SDS011;10593;48.398;10.698;2023-08-17T13:43:39;3.07;;;2.87;;
20865;SDS011;10593;48.398;10.698;2023-08-17T13:46:05;4.27;;;3.37;;
20865;SDS011;10593;48.398;10.698;2023-08-17T13:48:30;3.30;;;3.00;;
20865;SDS011;10593;48.398;10.698;2023-08-17T13:50:56;3.57;;;3.27;;
20865;SDS011;10593;48.398;10.698;2023-08-17T13:53:22;3.60;;;3.30;;
20865;SDS011;10593;48.398;10.698;2023-08-17T13:55:48;2.93;;;2.73;;
20865;SDS011;10593;48.398;10.698;2023-08-17T13:58:13;3.97;;;3.67;;
20865;SDS011;10593;48.398;10.698;2023-08-17T14:00:40;3.17;;;2.87;;
20865;SDS011;10593;48.398;10.698;2023-08-17T14:03:07;3.40;;;3.20;;
20865;SDS011;10593;48.398;10.698;2023-08-17T14:05:33;3.30;;;3.10;;
20865;SDS011;10593;48.398;10.698;2023-08-17T14:07:59;3.05;;;2.88;;
20865;SDS011;10593;48.398;10.698;2023-08-17T14:10:24;3.38;;;3.08;;
20865;SDS011;10593;48.398;10.698;2023-08-17T14:12:50;3.10;;;2.90;;
20865;SDS011;10593;48.398;10.698;2023-08-17T14:15:16;3.43;;;3.10;;
20865;SDS011;10593;48.398;10.698;2023-08-17T14:17:41;3.10;;;2.90;;
20865;SDS011;10593;48.398;10.698;2023-08-17T14:20:07;3.30;;;3.00;;
20865;SDS011;10593;48.398;10.698;2023-08-17T14:22:33;3.40;;;3.20;;
20865;SDS011;10593;48.398;10.698;2023-08-17T14:24:59;3.05;;;2.75;;
20865;SDS011;10593;48.398;10.698;2023-08-17T14:27:25;2.97;;;2.77;;
20865;SDS011;10593;48.398;10.698;2023-08-17T14:29:52;3.13;;;2.90;;
20865;SDS011;10593;48.398;10.698;2023-08-17T14:32:18;5.10;;;3.10;;
20865;SDS011;10593;48.398;10.698;2023-08-17T14:34:43;3.40;;;2.70;;
20865;SDS011;10593;48.398;10.698;2023-08-17T14:37:09;3.88;;;3.05;;
20865;SDS011;10593;48.398;10.698;2023-08-17T14:39:35;3.17;;;2.30;;
20865;SDS011;10593;48.398;10.698;2023-08-17T14:42:00;6.80;;;2.40;;
20865;SDS011;10593;48.398;10.698;2023-08-17T14:44:26;3.37;;;2.60;;
20865;SDS011;10593;48.398;10.698;2023-08-17T14:46:52;2.67;;;2.50;;
20865;SDS011;10593;48.398;10.698;2023-08-17T14:49:17;6.83;;;2.60;;
20865;SDS011;10593;48.398;10.698;2023-08-17T14:51:43;2.37;;;2.20;;
20865;SDS011;10593;48.398;10.698;2023-08-17T14:54:09;3.57;;;2.27;;
20865;SDS011;10593;48.398;10.698;2023-08-17T14:56:36;4.07;;;2.33;;
20865;SDS011;10593;48.398;10.698;2023-08-17T14:59:02;3.07;;;2.40;;
20865;SDS011;10593;48.398;10.698;2023-08-17T15:01:28;4.40;;;1.83;;
20865;SDS011;10593;48.398;10.698;2023-08-17T15:03:55;1.67;;;1.57;;
20865;SDS011;10593;48.398;10.698;2023-08-17T15:06:21;2.47;;;1.70;;
20865;SDS011;10593;48.398;10.698;2023-08-17T15:08:49;2.50;;;2.17;;
20865;SDS011;10593;48.398;10.698;2023-08-17T15:11:18;3.00;;;2.10;;
20865;SDS011;10593;48.398;10.698;2023-08-17T15:13:44;2.40;;;2.00;;
20865;SDS011;10593;48.398;10.698;2023-08-17T15:16:10;3.07;;;1.90;;
20865;SDS011;10593;48.398;10.698;2023-08-17T15:18:36;3.13;;;1.87;;
20865;SDS011;10593;48.398;10.698;2023-08-17T15:21:03;3.90;;;1.87;;
20865;SDS011;10593;48.398;10.698;2023-08-17T15:23:29;3.43;;;1.80;;
20865;SDS011;10593;48.398;10.698;2023-08-17T15:25:54;3.97;;;2.20;;
20865;SDS011;10593;48.398;10.698;2023-08-17T15:28:20;3.50;;;2.40;;
20865;SDS011;10593;48.398;10.698;2023-08-17T15:30:48;2.87;;;1.83;;
20865;SDS011;10593;48.398;10.698;2023-08-17T15:33:27;4.40;;;2.17;;
20865;SDS011;10593;48.398;10.698;2023-08-17T15:35:53;4.93;;;1.97;;
20865;SDS011;10593;48.398;10.698;2023-08-17T15:38:20;4.40;;;2.33;;
20865;SDS011;10593;48.398;10.698;2023-08-17T15:40:45;5.80;;;2.17;;
20865;SDS011;10593;48.398;10.698;2023-08-17T15:43:11;5.43;;;2.17;;
20865;SDS011;10593;48.398;10.698;2023-08-17T15:45:37;2.50;;;1.93;;
20865;SDS011;10593;48.398;10.698;2023-08-17T15:48:02;2.50;;;1.70;;
20865;SDS011;10593;48.398;10.698;2023-08-17T15:50:29;2.70;;;1.77;;
20865;SDS011;10593;48.398;10.698;2023-08-17T15:52:55;2.00;;;1.90;;
20865;SDS011;10593;48.398;10.698;2023-08-17T15:55:20;4.27;;;2.13;;
20865;SDS011;10593;48.398;10.698;2023-08-17T15:57:46;5.83;;;2.07;;
20865;SDS011;10593;48.398;10.698;2023-08-17T16:00:12;1.87;;;1.77;;
20865;SDS011;10593;48.398;10.698;2023-08-17T16:02:38;2.97;;;2.20;;
20865;SDS011;10593;48.398;10.698;2023-08-17T16:05:04;4.70;;;2.53;;
20865;SDS011;10593;48.398;10.698;2023-08-17T16:07:30;2.83;;;2.60;;
20865;SDS011;10593;48.398;10.698;2023-08-17T16:09:55;3.83;;;2.10;;
20865;SDS011;10593;48.398;10.698;2023-08-17T16:12:21;6.23;;;2.30;;
20865;SDS011;10593;48.398;10.698;2023-08-17T16:14:47;4.37;;;2.23;;
20865;SDS011;10593;48.398;10.698;2023-08-17T16:17:12;2.97;;;2.30;;
20865;SDS011;10593;48.398;10.698;2023-08-17T16:19:38;2.97;;;2.20;;
20865;SDS011;10593;48.398;10.698;2023-08-17T16:22:04;2.60;;;2.10;;
20865;SDS011;10593;48.398;10.698;2023-08-17T16:24:29;3.73;;;1.90;;
20865;SDS011;10593;48.398;10.698;2023-08-17T16:26:55;4.03;;;2.17;;
20865;SDS011;10593;48.398;10.698;2023-08-17T16:29:21;5.10;;;2.23;;
20865;SDS011;10593;48.398;10.698;2023-08-17T16:31:57;3.93;;;1.70;;
20865;SDS011;10593;48.398;10.698;2023-08-17T16:34:26;2.90;;;1.77;;
20865;SDS011;10593;48.398;10.698;2023-08-17T16:36:53;3.77;;;2.00;;
20865;SDS011;10593;48.398;10.698;2023-08-17T16:39:19;5.10;;;1.97;;
20865;SDS011;10593;48.398;10.698;2023-08-17T16:41:45;2.30;;;2.10;;
20865;SDS011;10593;48.398;10.698;2023-08-17T16:44:11;2.67;;;2.00;;
20865;SDS011;10593;48.398;10.698;2023-08-17T16:46:36;3.57;;;2.20;;
20865;SDS011;10593;48.398;10.698;2023-08-17T16:49:02;4.27;;;2.70;;
20865;SDS011;10593;48.398;10.698;2023-08-17T16:51:28;2.53;;;1.97;;
20865;SDS011;10593;48.398;10.698;2023-08-17T16:53:54;4.33;;;2.13;;
20865;SDS011;10593;48.398;10.698;2023-08-17T16:56:21;4.00;;;1.80;;
20865;SDS011;10593;48.398;10.698;2023-08-17T16:58:47;3.23;;;1.93;;
20865;SDS011;10593;48.398;10.698;2023-08-17T17:01:13;4.73;;;2.23;;
20865;SDS011;10593;48.398;10.698;2023-08-17T17:32:01;3.97;;;2.17;;
20865;SDS011;10593;48.398;10.698;2023-08-17T17:37:03;3.33;;;2.23;;
20865;SDS011;10593;48.398;10.698;2023-08-17T17:39:28;3.67;;;2.03;;
20865;SDS011;10593;48.398;10.698;2023-08-17T17:41:54;3.63;;;2.37;;
20865;SDS011;10593;48.398;10.698;2023-08-17T17:44:21;3.87;;;2.00;;
20865;SDS011;10593;48.398;10.698;2023-08-17T17:46:46;3.13;;;2.33;;
20865;SDS011;10593;48.398;10.698;2023-08-17T17:51:47;4.17;;;2.70;;
20865;SDS011;10593;48.398;10.698;2023-08-17T17:54:13;3.50;;;2.40;;
20865;SDS011;10593;48.398;10.698;2023-08-17T17:56:40;4.70;;;2.53;;
20865;SDS011;10593;48.398;10.698;2023-08-17T17:59:08;4.47;;;2.60;;
20865;SDS011;10593;48.398;10.698;2023-08-17T18:01:34;2.33;;;2.07;;
20865;SDS011;10593;48.398;10.698;2023-08-17T18:04:00;3.27;;;2.30;;
20865;SDS011;10593;48.398;10.698;2023-08-17T18:06:26;2.30;;;2.17;;
20865;SDS011;10593;48.398;10.698;2023-08-17T18:08:52;3.00;;;2.17;;